Time;durP1;ratioP1;P1;durP2;ratioP2;P2;SDS_P1;SDS_P2;PMS_P1;PMS_P2;Temp;Humidity;BMP_temperature;BMP_pressure;BME280_temperature;BME280_humidity;BME280_pressure;Samples;Min_cycle;Max_cycle;Signal;HPM_P1;HPM_P2
2023/09/16 00:03:57;;;;;;;12.30;6.90;;;;;;;11.57;100.00;99630.64;269248;1269;22547;-86
2023/09/16 00:09:59;;;;;;;14.40;8.50;;;;;;;11.52;100.00;99622.71;269134;1272;22524;-87
2023/09/16 00:16:00;;;;;;;15.40;7.70;;;;;;;11.46;100.00;99627.23;269319;1270;22716;-86
2023/09/16 00:22:04;;;;;;;15.00;7.40;;;;;;;11.38;100.00;99625.21;269088;1269;22412;-87
2023/09/16 00:28:08;;;;;;;16.10;7.50;;;;;;;11.25;100.00;99622.14;273089;1272;22220;-87
2023/09/16 00:34:10;;;;;;;11.40;7.70;;;;;;;11.12;100.00;99617.84;269725;1270;22843;-86
2023/09/16 00:40:12;;;;;;;14.20;8.50;;;;;;;11.06;100.00;99611.63;269779;1271;24265;-87
2023/09/16 00:46:13;;;;;;;15.30;8.60;;;;;;;11.02;100.00;99611.32;270091;1272;22292;-86
2023/09/16 00:52:15;;;;;;;14.60;8.20;;;;;;;10.96;100.00;99610.35;273068;1272;22321;-85
2023/09/16 00:58:17;;;;;;;11.80;7.60;;;;;;;10.87;100.00;99611.59;273067;1270;23155;-86
2023/09/16 01:04:19;;;;;;;12.40;7.90;;;;;;;10.78;100.00;99611.15;273107;1271;23387;-86
2023/09/16 01:10:22;;;;;;;14.20;8.70;;;;;;;10.74;100.00;99605.43;272922;1271;22350;-85
2023/09/16 01:16:35;;;;;;;16.20;8.50;;;;;;;10.72;100.00;99605.09;273150;1272;22310;-85
2023/09/16 01:22:39;;;;;;;15.80;7.80;;;;;;;10.69;100.00;99597.05;273086;1270;23428;-86
2023/09/16 01:28:40;;;;;;;14.00;8.90;;;;;;;10.66;100.00;99589.55;273031;1271;22212;-86
2023/09/16 01:34:49;;;;;;;16.10;8.50;;;;;;;10.63;100.00;99587.23;273148;1270;23621;-86
2023/09/16 01:40:51;;;;;;;14.10;7.90;;;;;;;10.62;100.00;99589.78;273159;1270;22205;-86
2023/09/16 01:46:56;;;;;;;14.00;8.00;;;;;;;10.64;100.00;99593.17;273021;1260;23424;-86
2023/09/16 01:52:58;;;;;;;12.40;7.70;;;;;;;10.61;100.00;99596.05;272960;1271;22326;-86
2023/09/16 01:59:00;;;;;;;16.30;8.20;;;;;;;10.60;100.00;99595.61;270587;1271;22521;-86
2023/09/16 02:05:02;;;;;;;16.20;9.40;;;;;;;10.56;100.00;99594.68;269272;1271;22660;-86
2023/09/16 02:11:05;;;;;;;17.00;9.30;;;;;;;10.52;100.00;99593.25;271439;1270;22200;-86
2023/09/16 02:17:07;;;;;;;16.70;8.70;;;;;;;10.45;100.00;99591.56;272209;1270;23047;-86
2023/09/16 02:23:09;;;;;;;15.90;8.40;;;;;;;10.40;100.00;99586.98;273084;1272;23336;-86
2023/09/16 02:29:11;;;;;;;17.10;8.20;;;;;;;10.37;100.00;99587.46;272477;1271;22584;-85
2023/09/16 02:35:13;;;;;;;19.40;9.30;;;;;;;10.32;100.00;99588.37;269087;1271;22564;-83
2023/09/16 02:41:17;;;;;;;13.20;9.40;;;;;;;10.27;100.00;99587.55;269556;1271;23350;-84
2023/09/16 02:47:20;;;;;;;15.20;10.10;;;;;;;10.24;100.00;99588.51;268778;1273;24255;-85
2023/09/16 02:53:22;;;;;;;16.90;10.00;;;;;;;10.18;100.00;99585.97;270011;1270;22214;-84
2023/09/16 02:59:24;;;;;;;16.50;10.40;;;;;;;10.13;100.00;99584.98;270610;1271;23082;-85
2023/09/16 03:05:26;;;;;;;14.70;10.20;;;;;;;10.09;100.00;99581.61;270404;1270;24247;-84
2023/09/16 03:11:29;;;;;;;13.00;10.00;;;;;;;10.07;100.00;99577.56;270187;1271;23409;-84
2023/09/16 03:17:30;;;;;;;13.50;8.90;;;;;;;10.04;100.00;99578.10;271697;1271;23159;-86
2023/09/16 03:23:33;;;;;;;14.30;9.70;;;;;;;9.99;100.00;99579.17;273083;1270;23722;-85
2023/09/16 03:29:35;;;;;;;15.50;8.70;;;;;;;9.95;100.00;99584.16;273016;1271;22317;-84
2023/09/16 03:35:37;;;;;;;14.00;9.60;;;;;;;9.92;100.00;99584.40;273139;1270;22208;-85
2023/09/16 03:41:39;;;;;;;13.40;9.20;;;;;;;9.90;100.00;99582.71;272164;1272;22501;-85
2023/09/16 03:47:42;;;;;;;15.20;9.40;;;;;;;9.86;100.00;99579.81;272041;1272;22337;-85
2023/09/16 03:53:43;;;;;;;17.30;9.50;;;;;;;9.86;100.00;99581.52;273108;1270;22506;-85
2023/09/16 03:59:45;;;;;;;14.40;9.20;;;;;;;9.89;100.00;99583.54;272946;1272;22200;-86
2023/09/16 04:05:47;;;;;;;13.80;8.60;;;;;;;9.88;100.00;99583.23;272864;1272;22207;-84
2023/09/16 04:11:49;;;;;;;16.70;9.50;;;;;;;9.80;100.00;99580.13;272853;1272;22298;-84
2023/09/16 04:17:52;;;;;;;13.10;9.30;;;;;;;9.69;100.00;99572.75;272785;1272;22246;-84
2023/09/16 04:23:55;;;;;;;14.00;9.10;;;;;;;9.68;100.00;99570.25;272831;1272;22320;-85
2023/09/16 04:29:57;;;;;;;14.90;9.80;;;;;;;9.69;100.00;99564.40;272991;1272;22379;-85
2023/09/16 04:36:00;;;;;;;13.30;9.50;;;;;;;9.66;100.00;99558.09;272869;1272;23550;-85
2023/09/16 04:42:02;;;;;;;16.00;10.40;;;;;;;9.63;100.00;99556.91;272949;1272;22220;-84
2023/09/16 04:48:05;;;;;;;18.00;11.50;;;;;;;9.58;100.00;99556.42;271743;1272;25302;-84
2023/09/16 04:54:07;;;;;;;21.30;13.50;;;;;;;9.58;100.00;99553.23;269711;1272;23303;-83
2023/09/16 05:00:10;;;;;;;20.80;13.30;;;;;;;9.60;100.00;99556.07;270504;1272;22207;-85
2023/09/16 05:06:11;;;;;;;23.50;14.20;;;;;;;9.59;100.00;99564.65;273063;1271;22188;-84
2023/09/16 05:12:13;;;;;;;24.30;14.40;;;;;;;9.60;100.00;99567.39;273087;1270;22297;-86
2023/09/16 05:18:16;;;;;;;29.20;17.40;;;;;;;9.63;100.00;99567.09;272987;1270;22188;-85
2023/09/16 05:24:18;;;;;;;38.80;16.70;;;;;;;9.68;100.00;99567.75;272962;1271;22221;-85
2023/09/16 05:30:42;;;;;;;37.50;16.50;;;;;;;9.75;100.00;99568.77;273015;1272;22180;-85
2023/09/16 05:36:44;;;;;;;25.60;14.20;;;;;;;9.79;100.00;99572.14;270744;1270;22206;-84
2023/09/16 05:42:46;;;;;;;19.10;13.70;;;;;;;9.86;100.00;99575.66;270376;1270;22530;-85
2023/09/16 05:48:49;;;;;;;24.20;14.70;;;;;;;9.86;100.00;99571.60;269671;1270;22554;-84
2023/09/16 05:54:51;;;;;;;26.60;15.80;;;;;;;9.86;100.00;99573.70;270407;1270;23374;-85
2023/09/16 06:00:55;;;;;;;26.70;16.70;;;;;;;9.96;100.00;99578.39;271233;1270;22299;-86
2023/09/16 06:07:17;;;;;;;24.80;17.00;;;;;;;10.11;100.00;99576.34;270477;1263;23733;-85
2023/09/16 06:13:19;;;;;;;24.80;16.50;;;;;;;10.27;100.00;99575.13;269307;1271;22540;-83
2023/09/16 06:19:21;;;;;;;22.70;16.00;;;;;;;10.34;100.00;99575.59;269034;1270;22537;-84
2023/09/16 06:25:23;;;;;;;25.70;17.80;;;;;;;10.39;100.00;99572.02;269447;1270;22546;-85
2023/09/16 06:31:25;;;;;;;25.50;16.20;;;;;;;10.47;100.00;99575.55;269515;1270;24224;-84
2023/09/16 06:37:28;;;;;;;25.40;16.00;;;;;;;10.59;100.00;99578.23;269781;1270;22547;-84
2023/09/16 06:43:50;;;;;;;25.30;17.70;;;;;;;10.75;100.00;99574.33;272590;1270;22323;-86
2023/09/16 06:50:55;;;;;;;24.70;15.80;;;;;;;10.84;100.00;99569.89;273297;1270;22187;-85
2023/09/16 06:57:00;;;;;;;24.20;16.20;;;;;;;10.96;100.00;99565.81;273272;1264;22369;-85
2023/09/16 07:03:02;;;;;;;20.20;14.60;;;;;;;11.15;100.00;99568.90;273332;1270;22292;-85
2023/09/16 07:09:04;;;;;;;19.00;14.00;;;;;;;11.32;100.00;99578.66;273263;1270;22383;-85
2023/09/16 07:15:06;;;;;;;18.30;13.40;;;;;;;11.42;100.00;99580.80;273199;1270;22445;-85
2023/09/16 07:21:09;;;;;;;17.30;13.10;;;;;;;11.54;100.00;99584.60;273236;1270;22203;-85
2023/09/16 07:27:15;;;;;;;19.60;13.90;;;;;;;11.61;100.00;99587.85;273472;1270;22187;-87
2023/09/16 07:34:00;;;;;;;18.70;14.30;;;;;;;11.73;100.00;99591.69;273449;1270;23285;-85
2023/09/16 07:40:05;;;;;;;17.50;12.00;;;;;;;12.03;100.00;99590.88;273249;1270;22467;-86
2023/09/16 07:46:07;;;;;;;16.50;12.40;;;;;;;12.32;100.00;99591.21;273527;1270;22671;-85
2023/09/16 07:52:10;;;;;;;18.80;12.70;;;;;;;12.36;100.00;99588.14;273553;1271;22195;-85
2023/09/16 07:58:11;;;;;;;17.00;12.30;;;;;;;12.59;100.00;99590.32;273385;1270;23718;-86
2023/09/16 08:04:34;;;;;;;20.20;13.80;;;;;;;13.05;100.00;99586.92;272569;1270;23403;-85
2023/09/16 08:10:36;;;;;;;16.70;12.60;;;;;;;13.49;100.00;99587.15;273100;1270;22300;-87
2023/09/16 08:17:20;;;;;;;15.70;12.40;;;;;;;13.88;100.00;99587.14;273471;1270;23932;-88
2023/09/16 08:24:05;;;;;;;17.80;12.70;;;;;;;14.27;100.00;99590.01;273238;1270;22382;-87
2023/09/16 08:30:47;;;;;;;16.90;12.00;;;;;;;14.46;100.00;99594.21;273320;1270;23259;-87
2023/09/16 08:36:51;;;;;;;20.10;12.60;;;;;;;14.83;100.00;99594.77;272487;1270;22282;-87
2023/09/16 08:43:36;;;;;;;17.80;11.00;;;;;;;15.16;100.00;99590.06;273328;1270;22211;-86
2023/09/16 08:50:18;;;;;;;18.10;12.20;;;;;;;15.41;100.00;99595.08;273189;1270;22325;-87
2023/09/16 08:56:43;;;;;;;16.10;10.30;;;;;;;15.67;100.00;99596.29;273253;1271;23764;-86
2023/09/16 09:03:10;;;;;;;11.60;8.50;;;;;;;16.02;100.00;99590.98;273226;1278;23321;-87
2023/09/16 09:09:14;;;;;;;12.70;8.00;;;;;;;16.76;100.00;99591.19;271484;1270;22392;-87
2023/09/16 09:16:10;;;;;;;11.90;8.60;;;;;;;17.63;100.00;99587.83;273263;1270;22185;-87
2023/09/16 09:22:12;;;;;;;11.80;8.30;;;;;;;18.55;100.00;99585.86;273135;1270;23765;-87
2023/09/16 09:28:56;;;;;;;11.60;7.60;;;;;;;19.24;100.00;99582.05;273162;1270;22326;-87
2023/09/16 09:36:13;;;;;;;9.60;7.40;;;;;;;19.94;100.00;99578.71;273103;1278;22326;-87
2023/09/16 09:42:48;;;;;;;7.90;7.10;;;;;;;20.75;100.00;99574.34;273165;1273;23911;-86
2023/09/16 09:49:19;;;;;;;10.40;6.70;;;;;;;21.51;99.66;99568.83;273048;1270;22336;-87
2023/09/16 09:55:23;;;;;;;11.00;7.30;;;;;;;22.09;98.39;99569.40;273108;1269;22370;-87
2023/09/16 10:01:32;;;;;;;8.20;6.80;;;;;;;22.59;95.74;99570.41;273137;1270;23033;-87
2023/09/16 10:07:34;;;;;;;7.90;6.20;;;;;;;22.90;93.48;99571.77;271902;1270;22319;-84
2023/09/16 10:13:36;;;;;;;9.20;5.60;;;;;;;22.72;90.96;99569.43;273373;1270;22198;-87
2023/09/16 10:19:59;;;;;;;9.50;6.70;;;;;;;22.99;89.88;99563.03;273252;1270;22207;-88
2023/09/16 10:26:04;;;;;;;7.20;5.00;;;;;;;23.17;87.37;99554.34;273314;1263;22194;-88
2023/09/16 10:33:15;;;;;;;6.80;4.80;;;;;;;23.49;86.17;99552.55;273325;1273;22181;-86
2023/09/16 10:40:04;;;;;;;6.70;4.80;;;;;;;24.02;84.07;99546.10;272087;1271;22377;-88
2023/09/16 10:46:06;;;;;;;6.50;4.70;;;;;;;24.42;82.22;99542.17;271387;1270;23055;-86
2023/09/16 10:52:48;;;;;;;6.00;4.50;;;;;;;24.53;80.90;99536.09;271364;1266;23636;-87
2023/09/16 10:59:10;;;;;;;7.00;5.40;;;;;;;24.66;78.99;99529.25;271785;1262;23904;-87
2023/09/16 11:06:05;;;;;;;6.40;4.60;;;;;;;24.81;78.30;99523.23;273097;1270;22355;-87
2023/09/16 11:13:17;;;;;;;5.40;4.80;;;;;;;24.88;77.31;99517.71;271349;1270;22179;-89
2023/09/16 11:19:42;;;;;;;7.70;5.30;;;;;;;24.40;75.75;99518.13;273253;1265;181068;-88
2023/09/16 11:25:44;;;;;;;5.90;4.80;;;;;;;23.76;74.65;99508.52;270122;1270;23311;-88
2023/09/16 11:31:48;;;;;;;6.00;4.90;;;;;;;23.46;75.26;99498.06;269664;1270;24272;-86
2023/09/16 11:37:49;;;;;;;6.00;4.40;;;;;;;23.32;74.69;99493.58;271634;1271;22345;-88
2023/09/16 11:44:06;;;;;;;7.80;4.60;;;;;;;23.12;74.36;99487.64;273237;1270;22553;-88
2023/09/16 11:50:28;;;;;;;;;;;;;;;22.96;74.28;99485.44;271339;1262;23763;-88
2023/09/16 11:56:34;;;;;;;6.50;4.90;;;;;;;22.81;73.31;99478.48;270345;1270;22527;-88
2023/09/16 12:02:48;;;;;;;9.40;4.40;;;;;;;22.67;73.08;99471.41;273087;1271;22284;-87
2023/09/16 12:08:50;;;;;;;7.60;4.90;;;;;;;22.48;73.01;99465.04;270562;1272;22543;-87
2023/09/16 12:15:02;;;;;;;8.60;5.00;;;;;;;22.43;73.50;99463.90;269695;1271;22556;-88
2023/09/16 12:21:33;;;;;;;5.20;4.00;;;;;;;22.44;73.67;99450.58;271608;1271;23364;-88
2023/09/16 12:28:15;;;;;;;8.40;4.50;;;;;;;22.37;74.20;99441.77;273168;1275;22203;-88
2023/09/16 12:35:05;;;;;;;7.50;4.60;;;;;;;22.34;73.93;99432.13;273060;1271;22554;-87
2023/09/16 12:41:07;;;;;;;10.40;5.50;;;;;;;22.32;73.20;99423.35;272884;1272;23104;-87
2023/09/16 12:47:09;;;;;;;9.40;5.00;;;;;;;22.29;73.32;99418.60;272832;1272;22203;-88
2023/09/16 12:53:52;;;;;;;9.70;4.70;;;;;;;22.27;73.79;99414.91;272907;1265;22208;-88
2023/09/16 13:01:15;;;;;;;7.30;5.00;;;;;;;22.31;74.36;99412.92;272954;1270;23492;-89
2023/09/16 13:07:37;;;;;;;8.00;5.10;;;;;;;22.33;74.89;99411.20;273323;1271;22209;-88
2023/09/16 13:13:40;;;;;;;7.00;4.50;;;;;;;22.29;75.30;99405.13;273161;1270;23125;-88
2023/09/16 13:20:25;;;;;;;6.70;4.30;;;;;;;22.30;75.89;99401.52;273155;1271;22216;-89
2023/09/16 13:27:08;;;;;;;5.50;3.80;;;;;;;22.37;76.06;99398.64;273277;1272;23065;-89
2023/09/16 13:34:04;;;;;;;4.90;3.90;;;;;;;22.44;76.99;99394.62;273315;1278;22292;-88
2023/09/16 13:40:09;;;;;;;4.60;4.10;;;;;;;22.48;77.36;99393.13;273230;1263;22317;-89
2023/09/16 13:46:25;;;;;;;6.00;4.30;;;;;;;22.48;77.27;99386.45;272951;1270;22332;-86
2023/09/16 13:52:28;;;;;;;8.00;4.30;;;;;;;22.50;77.16;99389.11;273187;1272;22207;-88
2023/09/16 13:58:30;;;;;;;6.30;4.20;;;;;;;22.51;77.20;99385.02;273214;1270;22224;-88
2023/09/16 14:04:56;;;;;;;10.10;4.90;;;;;;;22.48;78.08;99376.09;273137;1270;22882;-86
2023/09/16 14:11:38;;;;;;;6.20;4.60;;;;;;;22.45;78.77;99374.82;272915;1270;22245;-88
2023/09/16 14:18:42;;;;;;;8.70;4.60;;;;;;;22.46;79.17;99365.14;273160;1270;22237;-89
2023/09/16 14:25:04;;;;;;;6.20;5.60;;;;;;;22.48;79.47;99360.86;273077;1271;22156;-88
2023/09/16 14:31:07;;;;;;;11.50;5.20;;;;;;;22.46;80.08;99350.88;273297;1275;22201;-87
2023/09/16 14:37:11;;;;;;;7.30;5.30;;;;;;;22.50;79.90;99341.45;273103;1272;22197;-88
2023/09/16 14:43:38;;;;;;;10.40;5.00;;;;;;;22.56;80.13;99339.92;273047;1270;22407;-88
2023/09/16 14:49:41;;;;;;;7.00;4.50;;;;;;;22.61;80.40;99339.75;273126;1270;22211;-90
2023/09/16 14:56:04;;;;;;;9.80;5.50;;;;;;;22.63;81.04;99337.13;273171;1272;22170;-90
2023/09/16 15:02:07;;;;;;;5.60;4.60;;;;;;;22.60;81.53;99331.88;273152;1270;22222;-89
2023/09/16 15:08:11;;;;;;;5.10;4.60;;;;;;;22.58;82.12;99336.41;273053;1270;22288;-89
2023/09/16 15:21:32;;;;;;;7.00;4.90;;;;;;;22.52;82.72;99324.26;273088;1270;22421;-88
2023/09/16 15:27:54;;;;;;;6.90;5.70;;;;;;;22.54;83.10;99321.55;273090;1270;22086;-89
2023/09/16 15:34:43;;;;;;;6.00;5.30;;;;;;;22.53;83.34;99321.35;273037;1270;22336;-89
2023/09/16 15:41:30;;;;;;;8.10;5.60;;;;;;;22.50;83.74;99321.29;273054;1272;22693;-88
2023/09/16 15:48:35;;;;;;;8.00;5.40;;;;;;;22.43;84.17;99324.34;273109;1272;22191;-89
2023/09/16 15:55:18;;;;;;;9.50;5.10;;;;;;;22.36;84.41;99324.51;272964;1272;22222;-89
2023/09/16 16:02:09;;;;;;;8.40;4.90;;;;;;;22.32;84.59;99320.98;273184;1272;22856;-89
2023/09/16 16:08:16;;;;;;;6.90;5.00;;;;;;;22.26;85.17;99313.50;273305;1261;22248;-89
2023/09/16 16:14:20;;;;;;;6.50;4.70;;;;;;;22.19;85.83;99309.17;273316;1278;22335;-88
2023/09/16 16:20:22;;;;;;;13.20;5.80;;;;;;;22.09;86.28;99307.89;272953;1270;23408;-89
2023/09/16 16:26:45;;;;;;;9.00;5.60;;;;;;;21.98;86.64;99301.22;272955;1271;22345;-90
2023/09/16 16:33:27;;;;;;;8.20;5.70;;;;;;;21.84;87.38;99299.91;273159;1271;23489;-89
2023/09/16 16:39:31;;;;;;;7.40;5.70;;;;;;;21.65;87.79;99297.48;273057;1272;24176;-89
2023/09/16 16:45:33;;;;;;;9.90;6.20;;;;;;;21.50;88.11;99292.46;272384;1270;23728;-88
2023/09/16 16:52:02;;;;;;;8.60;5.60;;;;;;;21.38;88.55;99289.87;272726;1272;22990;-89
2023/09/16 16:58:29;;;;;;;8.10;5.80;;;;;;;21.25;88.86;99285.86;273188;1278;23403;-89
2023/09/16 17:04:34;;;;;;;10.10;5.90;;;;;;;21.12;89.38;99281.36;273042;1272;22396;-89
2023/09/16 17:10:36;;;;;;;7.10;5.80;;;;;;;20.99;89.88;99280.76;272891;1272;22435;-90
2023/09/16 17:16:57;;;;;;;9.50;5.80;;;;;;;20.85;90.25;99279.90;273056;1278;22186;-90
2023/09/16 17:23:30;;;;;;;8.40;6.30;;;;;;;20.71;90.82;99279.45;272973;1275;22207;-88
2023/09/16 17:29:57;;;;;;;9.20;6.40;;;;;;;20.57;91.37;99291.83;273058;1272;23588;-89
2023/09/16 17:36:23;;;;;;;9.90;6.60;;;;;;;20.43;92.22;99302.58;264799;1272;10001785;-90
2023/09/16 17:42:57;;;;;;;11.60;6.40;;;;;;;20.29;92.67;99303.69;273180;1278;23349;-89
2023/09/16 17:49:45;;;;;;;8.70;6.80;;;;;;;20.14;93.20;99309.16;273067;1278;23120;-89
2023/09/16 17:56:14;;;;;;;9.80;7.00;;;;;;;20.02;93.80;99308.95;272336;1272;23570;-89
2023/09/16 18:02:40;;;;;;;10.50;7.50;;;;;;;19.91;94.09;99306.59;273080;1275;22191;-87
2023/09/16 18:09:12;;;;;;;11.30;7.40;;;;;;;19.80;94.76;99303.64;273069;1261;22256;-87
2023/09/16 18:15:14;;;;;;;10.80;7.30;;;;;;;19.68;94.98;99302.23;272724;1275;22507;-89
2023/09/16 18:21:37;;;;;;;9.90;6.80;;;;;;;19.58;95.56;99310.84;272535;1272;22190;-89
2023/09/16 18:28:21;;;;;;;10.50;7.50;;;;;;;19.48;96.05;99316.13;272978;1273;22287;-89
2023/09/16 18:35:07;;;;;;;8.10;6.80;;;;;;;19.34;96.56;99316.94;273119;1278;22371;-88
2023/09/16 18:41:32;;;;;;;;;;;;;;;19.20;96.97;99314.80;273057;1271;23256;-89
2023/09/16 18:47:57;;;;;;;15.50;8.10;;;;;;;19.05;97.45;99314.36;272936;1275;22259;-89
2023/09/16 18:54:02;;;;;;;14.60;8.30;;;;;;;18.91;97.87;99312.16;273084;1278;22217;-90
2023/09/16 19:00:29;;;;;;;12.50;7.80;;;;;;;18.80;98.50;99312.73;272849;1275;22387;-89
2023/09/16 19:14:02;;;;;;;11.00;7.80;;;;;;;18.49;99.48;99310.79;273167;1274;22198;-90
2023/09/16 19:20:04;;;;;;;13.70;9.40;;;;;;;18.33;99.94;99308.64;272899;1272;22464;-89
2023/09/16 19:26:06;;;;;;;14.00;9.10;;;;;;;18.20;100.00;99309.14;272939;1262;22337;-90
2023/09/16 19:32:08;;;;;;;12.50;9.30;;;;;;;18.10;100.00;99308.09;272952;1269;22307;-90
2023/09/16 19:38:10;;;;;;;15.60;9.90;;;;;;;18.03;100.00;99308.04;272739;1269;22322;-89
2023/09/16 19:44:12;;;;;;;15.90;10.70;;;;;;;17.94;100.00;99310.47;272879;1270;22559;-89
2023/09/16 19:50:14;;;;;;;12.40;9.60;;;;;;;17.84;100.00;99315.73;272052;1272;22588;-88
2023/09/16 19:56:16;;;;;;;14.70;10.00;;;;;;;17.78;100.00;99315.50;272281;1272;22285;-89
2023/09/16 20:02:18;;;;;;;12.90;9.30;;;;;;;17.67;100.00;99322.27;272562;1272;22402;-90
2023/09/16 20:08:20;;;;;;;10.90;8.80;;;;;;;17.55;100.00;99321.16;272986;1271;22401;-89
2023/09/16 20:14:21;;;;;;;16.30;10.90;;;;;;;17.38;100.00;99313.59;272884;1270;23475;-90
2023/09/16 20:20:23;;;;;;;12.90;10.20;;;;;;;17.23;100.00;99318.96;272483;1270;23436;-88
2023/09/16 20:26:25;;;;;;;16.40;10.30;;;;;;;17.19;100.00;99321.46;272428;1272;22331;-89
2023/09/16 20:32:27;;;;;;;13.40;9.00;;;;;;;17.15;100.00;99318.87;272980;1270;22292;-89
2023/09/16 20:38:29;;;;;;;16.20;10.50;;;;;;;17.04;100.00;99319.71;272625;1271;22340;-87
2023/09/16 20:44:32;;;;;;;13.00;9.60;;;;;;;16.91;100.00;99319.44;273086;1270;22341;-89
2023/09/16 20:50:35;;;;;;;12.80;9.30;;;;;;;16.84;100.00;99315.48;272944;1271;22313;-88
2023/09/16 20:56:36;;;;;;;14.30;9.90;;;;;;;16.68;100.00;99315.30;272951;1271;22318;-89
2023/09/16 21:02:38;;;;;;;10.70;8.10;;;;;;;16.51;100.00;99322.70;273042;1271;22159;-88
2023/09/16 21:08:40;;;;;;;16.00;12.10;;;;;;;16.44;100.00;99322.57;273087;1270;22280;-88
2023/09/16 21:14:42;;;;;;;17.90;11.00;;;;;;;16.31;100.00;99323.03;273125;1272;22395;-88
2023/09/16 21:20:44;;;;;;;12.10;9.60;;;;;;;16.25;100.00;99324.02;272984;1270;22337;-88
2023/09/16 21:26:46;;;;;;;16.90;12.50;;;;;;;16.17;100.00;99317.92;272896;1270;22356;-88
2023/09/16 21:32:51;;;;;;;18.80;11.60;;;;;;;16.11;100.00;99315.11;272872;1270;22360;-88
2023/09/16 21:38:53;;;;;;;16.00;11.40;;;;;;;16.00;100.00;99315.34;273046;1271;22486;-88
2023/09/16 21:44:55;;;;;;;19.80;14.20;;;;;;;15.87;100.00;99309.41;272921;1270;22337;-88
2023/09/16 21:50:57;;;;;;;20.20;13.50;;;;;;;15.79;100.00;99309.14;272890;1270;22329;-88
2023/09/16 21:56:59;;;;;;;15.30;12.10;;;;;;;15.77;100.00;99305.76;272923;1270;22277;-87
2023/09/16 22:03:02;;;;;;;19.20;13.30;;;;;;;15.82;100.00;99312.69;272963;1270;22161;-88
2023/09/16 22:09:04;;;;;;;15.50;9.90;;;;;;;15.84;100.00;99318.98;270454;1270;22517;-87
2023/09/16 22:15:08;;;;;;;15.60;9.90;;;;;;;15.83;100.00;99317.34;269847;1270;22594;-88
2023/09/16 22:21:10;;;;;;;15.10;12.10;;;;;;;15.81;100.00;99309.69;269697;1270;22558;-88
2023/09/16 22:27:11;;;;;;;16.40;13.10;;;;;;;15.76;100.00;99310.34;271767;1270;23137;-88
2023/09/16 22:33:13;;;;;;;13.90;10.70;;;;;;;15.67;100.00;99313.45;271631;1270;23635;-89
2023/09/16 22:39:17;;;;;;;17.60;10.00;;;;;;;15.68;100.00;99312.02;272907;1270;23265;-88
2023/09/16 22:45:18;;;;;;;12.00;9.00;;;;;;;15.70;100.00;99314.15;269458;1270;22540;-88
2023/09/16 22:51:20;;;;;;;15.30;9.90;;;;;;;15.64;100.00;99314.96;270091;1270;22738;-87
2023/09/16 22:57:22;;;;;;;12.40;9.40;;;;;;;15.56;100.00;99316.02;271991;1270;22202;-88
2023/09/16 23:03:24;;;;;;;15.10;10.00;;;;;;;15.49;100.00;99315.25;272938;1270;23601;-89
2023/09/16 23:09:26;;;;;;;16.50;10.90;;;;;;;15.39;100.00;99316.15;272759;1270;22580;-89
2023/09/16 23:15:28;;;;;;;20.30;12.20;;;;;;;15.23;100.00;99316.80;271231;1270;336490;-88
2023/09/16 23:21:30;;;;;;;16.80;10.80;;;;;;;15.13;100.00;99315.56;271084;1270;22215;-89
2023/09/16 23:27:32;;;;;;;16.40;11.30;;;;;;;15.04;100.00;99307.31;271108;1270;22522;-88
2023/09/16 23:33:33;;;;;;;13.80;11.00;;;;;;;14.91;100.00;99303.39;270196;1270;22313;-88
2023/09/16 23:39:35;;;;;;;15.60;10.10;;;;;;;14.80;100.00;99297.67;272935;1270;22405;-87
2023/09/16 23:45:37;;;;;;;15.30;11.20;;;;;;;14.67;100.00;99296.65;273036;1270;23011;-88
2023/09/16 23:51:38;;;;;;;14.60;11.50;;;;;;;14.56;100.00;99301.45;272804;1270;22252;-88
2023/09/16 23:57:40;;;;;;;15.00;11.30;;;;;;;14.46;100.00;99300.42;272881;1270;22312;-87
